createdAt,value
2022-10-01T00:02:36.662Z,91.28
2022-10-01T00:07:42.377Z,91.49
2022-10-01T00:12:48.838Z,91.55
2022-10-01T00:17:50.156Z,91.73
2022-10-01T00:22:52.306Z,91.85
2022-10-01T00:27:53.667Z,91.97
2022-10-01T00:32:55.145Z,91.57
2022-10-01T00:37:56.587Z,91.55
2022-10-01T00:42:57.890Z,90.13
2022-10-01T00:48:00.352Z,89.23
2022-10-01T00:53:04.932Z,89.32
2022-10-01T00:58:07.507Z,89.86
2022-10-01T01:03:09.907Z,89.73
2022-10-01T01:08:11.299Z,89.62
2022-10-01T01:13:32.979Z,89.97
2022-10-01T01:18:58.055Z,90.73
2022-10-01T01:24:18.093Z,91.07
2022-10-01T01:29:27.776Z,92.35
2022-10-01T01:34:30.881Z,93.58
2022-10-01T01:39:33.495Z,94.55
2022-10-01T01:44:38.999Z,95.30
2022-10-01T01:49:41.704Z,97.06
2022-10-01T01:54:44.563Z,98.82
2022-10-01T01:59:46.031Z,100.00
2022-10-01T02:04:49.983Z,100.00
2022-10-01T02:09:54.304Z,100.00
2022-10-01T02:15:05.444Z,100.00
2022-10-01T02:20:11.980Z,100.00
2022-10-01T02:25:15.845Z,100.00
2022-10-01T02:30:17.480Z,100.00
2022-10-01T02:35:19.443Z,100.00
2022-10-01T02:40:26.200Z,100.00
2022-10-01T02:45:27.710Z,100.00
2022-10-01T02:50:32.531Z,100.00
2022-10-01T02:55:37.236Z,100.00
2022-10-01T03:00:38.587Z,100.00
2022-10-01T03:05:40.170Z,100.00
2022-10-01T03:10:44.679Z,100.00
2022-10-01T03:15:47.895Z,100.00
2022-10-01T03:20:49.265Z,100.00
2022-10-01T03:25:50.578Z,100.00
2022-10-01T03:30:51.884Z,100.00
2022-10-01T03:35:53.186Z,100.00
2022-10-01T03:40:54.871Z,100.00
2022-10-01T03:45:56.679Z,100.00
2022-10-01T03:50:59.498Z,100.00
2022-10-01T03:56:01.156Z,100.00
2022-10-01T04:01:02.913Z,100.00
2022-10-01T04:06:04.238Z,100.00
2022-10-01T04:11:06.066Z,100.00
2022-10-01T04:16:07.521Z,100.00
2022-10-01T04:21:08.852Z,100.00
2022-10-01T04:26:10.156Z,100.00
2022-10-01T04:31:26.814Z,100.00
2022-10-01T04:36:28.405Z,100.00
2022-10-01T04:41:32.642Z,100.00
2022-10-01T04:46:34.254Z,100.00
2022-10-01T04:51:35.979Z,100.00
2022-10-01T04:56:37.543Z,100.00
2022-10-01T05:01:39.282Z,100.00
2022-10-01T05:06:41.369Z,100.00
2022-10-01T05:11:42.670Z,100.00
2022-10-01T05:16:44.110Z,100.00
2022-10-01T05:21:46.170Z,100.00
2022-10-01T05:26:47.486Z,100.00
2022-10-01T05:31:49.357Z,100.00
2022-10-01T05:36:50.681Z,100.00
2022-10-01T05:41:53.235Z,100.00
2022-10-01T05:46:54.584Z,100.00
2022-10-01T05:51:55.891Z,100.00
2022-10-01T05:56:57.314Z,100.00
2022-10-01T06:01:58.821Z,100.00
2022-10-01T06:07:00.535Z,100.00
2022-10-01T06:12:01.956Z,100.00
2022-10-01T06:17:03.319Z,100.00
2022-10-01T06:22:04.636Z,100.00
2022-10-01T06:27:05.945Z,100.00
2022-10-01T06:32:08.866Z,100.00
2022-10-01T06:37:10.202Z,100.00
2022-10-01T06:42:11.498Z,100.00
2022-10-01T06:47:12.800Z,100.00
2022-10-01T06:52:33.037Z,100.00
2022-10-01T06:57:34.345Z,100.00
2022-10-01T07:02:36.277Z,100.00
2022-10-01T07:07:38.051Z,100.00
2022-10-01T07:12:39.701Z,100.00
2022-10-01T07:17:45.125Z,100.00
2022-10-01T07:22:47.119Z,100.00
2022-10-01T07:27:48.457Z,100.00
2022-10-01T07:32:50.040Z,100.00
2022-10-01T07:37:51.513Z,100.00
2022-10-01T07:42:56.805Z,100.00
2022-10-01T07:47:59.537Z,100.00
2022-10-01T07:53:00.868Z,97.56
2022-10-01T07:58:02.713Z,95.11
2022-10-01T08:03:04.536Z,95.05
2022-10-01T08:08:07.026Z,97.58
2022-10-01T08:13:14.379Z,98.34
2022-10-01T08:18:17.688Z,99.36
2022-10-01T08:23:19.213Z,99.86
2022-10-01T08:28:20.546Z,100.00
2022-10-01T08:33:22.216Z,100.00
2022-10-01T08:38:23.510Z,97.77
2022-10-01T08:43:36.969Z,93.98
2022-10-01T08:48:44.480Z,93.86
2022-10-01T08:54:06.053Z,95.53
2022-10-01T08:59:17.333Z,93.85
2022-10-01T09:04:18.727Z,86.61
2022-10-01T09:09:20.069Z,87.89
2022-10-01T09:14:39.930Z,91.21
2022-10-01T09:19:47.747Z,92.45
2022-10-01T09:24:53.973Z,94.96
2022-10-01T09:29:58.332Z,96.58
2022-10-01T09:35:05.829Z,99.73
2022-10-01T09:40:21.397Z,100.00
2022-10-01T09:45:23.546Z,100.00
2022-10-01T09:50:34.698Z,100.00
2022-10-01T09:55:56.227Z,100.00
2022-10-01T10:00:57.619Z,99.30
2022-10-01T10:06:02.477Z,93.44
2022-10-01T10:11:08.774Z,91.42
2022-10-01T10:16:17.823Z,79.75
2022-10-01T10:21:25.330Z,66.09
2022-10-01T10:26:28.428Z,58.42
2022-10-01T10:31:35.645Z,57.90
2022-10-01T10:36:38.004Z,55.85
2022-10-01T10:41:44.153Z,52.63
2022-10-01T10:46:46.432Z,60.23
2022-10-01T10:51:51.386Z,54.29
2022-10-01T10:57:00.622Z,59.86
2022-10-01T11:02:04.656Z,61.62
2022-10-01T11:07:06.333Z,65.15
2022-10-01T11:12:15.672Z,64.00
2022-10-01T11:17:35.607Z,68.76
2022-10-01T11:22:36.876Z,65.52
2022-10-01T11:27:57.047Z,58.49
2022-10-01T11:33:10.716Z,61.31
2022-10-01T11:38:36.185Z,63.82
2022-10-01T11:43:40.838Z,65.64
2022-10-01T11:48:48.466Z,66.39
2022-10-01T11:53:52.372Z,65.10
2022-10-01T11:58:57.314Z,58.84
2022-10-01T12:04:06.253Z,50.22
2022-10-01T12:09:12.400Z,49.58
2022-10-01T12:14:19.688Z,50.86
2022-10-01T12:19:26.608Z,54.44
2022-10-01T12:24:34.611Z,57.40
2022-10-01T12:29:49.110Z,49.36
2022-10-01T12:34:59.307Z,48.88
2022-10-01T12:40:21.402Z,45.17
2022-10-01T12:45:22.794Z,43.86
2022-10-01T12:50:24.080Z,46.50
2022-10-01T12:55:37.090Z,49.63
2022-10-01T13:00:42.949Z,52.76
2022-10-01T13:05:51.098Z,52.48
2022-10-01T13:10:52.427Z,54.85
2022-10-01T13:16:03.405Z,52.21
2022-10-01T13:21:11.309Z,47.42
2022-10-01T13:26:19.094Z,47.05
2022-10-01T13:31:31.314Z,48.04
2022-10-01T13:36:34.905Z,51.41
2022-10-01T13:41:39.211Z,54.56
2022-10-01T13:47:13.329Z,57.95
2022-10-01T13:52:21.124Z,57.44
2022-10-01T13:57:26.911Z,53.96
2022-10-01T14:02:36.166Z,53.69
2022-10-01T14:07:38.948Z,52.51
2022-10-01T14:13:00.891Z,53.55
2022-10-01T14:18:05.355Z,51.58
2022-10-01T14:23:12.546Z,50.62
2022-10-01T14:28:21.214Z,50.75
2022-10-01T14:33:31.972Z,49.94
2022-10-01T14:38:34.196Z,50.21
2022-10-01T14:43:39.342Z,51.33
2022-10-01T14:48:41.288Z,53.82
2022-10-01T14:53:42.824Z,56.85
2022-10-01T14:58:48.941Z,55.41
2022-10-01T15:03:51.182Z,56.04
2022-10-01T15:08:54.673Z,56.79
2022-10-01T15:14:06.486Z,58.66
2022-10-01T15:19:09.392Z,60.12
2022-10-01T15:24:34.053Z,61.12
2022-10-01T15:29:36.644Z,59.96
2022-10-01T15:34:39.238Z,58.66
2022-10-01T15:39:41.360Z,59.92
2022-10-01T15:44:45.799Z,60.53
2022-10-01T15:50:05.187Z,61.33
2022-10-01T15:55:15.234Z,61.29
2022-10-01T16:00:23.999Z,60.95
2022-10-01T16:05:28.228Z,62.88
2022-10-01T16:10:32.788Z,62.24
2022-10-01T16:15:34.131Z,63.85
2022-10-01T16:20:39.734Z,65.20
2022-10-01T16:25:43.648Z,66.33
2022-10-01T16:30:49.854Z,67.26
2022-10-01T16:35:52.682Z,68.97
2022-10-01T16:40:54.040Z,71.65
2022-10-01T16:45:57.656Z,73.10
2022-10-01T16:50:59.266Z,74.27
2022-10-01T16:56:00.722Z,72.45
2022-10-01T17:01:07.593Z,73.96
2022-10-01T17:06:09.209Z,71.26
2022-10-01T17:11:12.754Z,68.99
2022-10-01T17:16:14.283Z,69.73
2022-10-01T17:21:15.672Z,70.79
2022-10-01T17:26:17.001Z,71.35
2022-10-01T17:31:18.450Z,73.24
2022-10-01T17:36:19.807Z,75.96
2022-10-01T17:41:21.115Z,76.10
2022-10-01T17:46:22.506Z,77.75
2022-10-01T17:51:23.946Z,80.84
2022-10-01T17:56:25.332Z,81.67
2022-10-01T18:01:26.692Z,82.84
2022-10-01T18:06:28.664Z,83.37
2022-10-01T18:11:30.045Z,82.58
2022-10-01T18:16:33.902Z,85.83
2022-10-01T18:21:37.163Z,88.36
2022-10-01T18:26:38.915Z,89.71
2022-10-01T18:31:41.037Z,93.68
2022-10-01T18:36:54.933Z,95.63
2022-10-01T18:41:56.660Z,97.88
2022-10-01T18:47:04.151Z,98.04
2022-10-01T18:52:05.558Z,98.99
2022-10-01T18:57:12.911Z,100.00
2022-10-01T19:02:21.940Z,100.00
2022-10-01T19:07:28.156Z,100.00
2022-10-01T19:12:38.930Z,100.00
2022-10-01T19:17:50.073Z,100.00
2022-10-01T19:23:03.751Z,100.00
2022-10-01T19:28:19.819Z,100.00
2022-10-01T19:33:21.620Z,100.00
2022-10-01T19:38:26.149Z,100.00
2022-10-01T19:43:37.268Z,100.00
2022-10-01T19:48:47.796Z,100.00
2022-10-01T19:53:51.269Z,100.00
2022-10-01T19:58:52.641Z,100.00
2022-10-01T20:04:00.471Z,100.00
2022-10-01T20:09:16.932Z,100.00
2022-10-01T20:14:50.617Z,100.00
2022-10-01T20:19:57.311Z,100.00
2022-10-01T20:25:14.763Z,100.00
2022-10-01T20:30:20.287Z,100.00
2022-10-01T20:35:29.568Z,100.00
2022-10-01T20:40:49.981Z,100.00
2022-10-01T20:45:52.517Z,100.00
2022-10-01T20:50:59.692Z,100.00
2022-10-01T20:56:18.804Z,100.00
2022-10-01T21:01:24.129Z,100.00
2022-10-01T21:06:30.143Z,100.00
2022-10-01T21:11:31.527Z,100.00
2022-10-01T21:16:52.534Z,100.00
2022-10-01T21:21:55.369Z,100.00
2022-10-01T21:27:06.033Z,100.00
2022-10-01T21:32:18.069Z,100.00
2022-10-01T21:37:39.563Z,100.00
2022-10-01T21:42:43.872Z,100.00
2022-10-01T21:48:03.491Z,100.00
2022-10-01T21:53:34.228Z,100.00
2022-10-01T21:58:35.818Z,100.00
2022-10-01T22:03:43.757Z,100.00
2022-10-01T22:08:54.303Z,100.00
2022-10-01T22:13:57.709Z,100.00
2022-10-01T22:19:09.643Z,100.00
2022-10-01T22:24:16.584Z,100.00
2022-10-01T22:29:20.272Z,100.00
2022-10-01T22:34:23.843Z,100.00
2022-10-01T22:39:26.374Z,100.00
2022-10-01T22:44:28.323Z,100.00
2022-10-01T22:49:39.214Z,100.00
2022-10-01T22:54:48.845Z,100.00
2022-10-01T23:00:05.423Z,100.00
2022-10-01T23:05:35.967Z,100.00
2022-10-01T23:10:45.917Z,100.00
2022-10-01T23:15:53.306Z,100.00
2022-10-01T23:21:17.682Z,100.00
2022-10-01T23:26:38.035Z,100.00
2022-10-01T23:31:44.572Z,100.00
2022-10-01T23:36:53.279Z,100.00
2022-10-01T23:42:06.751Z,100.00
2022-10-01T23:47:16.061Z,100.00
2022-10-01T23:52:22.719Z,100.00
2022-10-01T23:57:26.683Z,100.00
